Time;durP1;ratioP1;P1;durP2;ratioP2;P2;SDS_P1;SDS_P2;PMS_P1;PMS_P2;Temp;Humidity;BMP_temperature;BMP_pressure;BME280_temperature;BME280_humidity;BME280_pressure;Samples;Min_cycle;Max_cycle;Signal;HPM_P1;HPM_P2
2021/08/07 00:00:50;;;;;;;2.50;1.10;;;;;22.90;100261.00;;;;5037782;28;20222;-80
2021/08/07 00:03:18;;;;;;;2.45;1.00;;;;;22.90;100257.00;;;;5030057;28;20204;-80
2021/08/07 00:05:46;;;;;;;1.00;0.77;;;;;22.90;100265.00;;;;5032924;28;20204;-79
2021/08/07 00:08:13;;;;;;;2.70;0.70;;;;;22.80;100261.00;;;;5043840;28;20196;-80
2021/08/07 00:10:40;;;;;;;0.65;0.57;;;;;22.80;100263.00;;;;5030164;28;20200;-80
2021/08/07 00:13:08;;;;;;;1.55;0.73;;;;;22.80;100273.00;;;;5046315;28;20676;-80
2021/08/07 00:15:36;;;;;;;2.90;0.77;;;;;22.80;100264.00;;;;5040848;28;21198;-80
2021/08/07 00:18:05;;;;;;;2.53;0.60;;;;;22.80;100271.00;;;;5042638;28;20200;-80
2021/08/07 00:20:32;;;;;;;1.65;0.60;;;;;22.80;100263.00;;;;5030142;28;20212;-80
2021/08/07 00:22:59;;;;;;;1.05;0.73;;;;;22.80;100264.00;;;;5036401;28;20201;-80
2021/08/07 00:25:27;;;;;;;1.73;0.80;;;;;22.80;100258.00;;;;5036062;28;20677;-80
2021/08/07 00:27:54;;;;;;;1.23;0.60;;;;;22.80;100259.00;;;;5040241;28;20212;-79
2021/08/07 00:30:21;;;;;;;2.05;1.00;;;;;22.80;100255.00;;;;5033858;28;20224;-79
2021/08/07 00:32:50;;;;;;;2.22;1.02;;;;;22.70;100254.00;;;;5029026;28;20200;-79
2021/08/07 00:35:17;;;;;;;1.58;0.70;;;;;22.70;100246.00;;;;5028908;28;20228;-80
2021/08/07 00:37:44;;;;;;;2.15;0.80;;;;;22.70;100248.00;;;;5038063;28;20210;-79
2021/08/07 00:40:13;;;;;;;0.93;0.43;;;;;22.70;100240.00;;;;5047746;28;20231;-79
2021/08/07 00:42:41;;;;;;;3.13;0.85;;;;;22.70;100240.00;;;;5040896;28;20200;-79
2021/08/07 00:45:10;;;;;;;4.00;1.00;;;;;22.70;100242.00;;;;5032993;28;20207;-80
2021/08/07 00:47:37;;;;;;;5.53;0.80;;;;;22.70;100242.00;;;;5043306;28;20215;-80
2021/08/07 00:50:07;;;;;;;1.17;0.63;;;;;22.70;100243.00;;;;5039257;28;20192;-79
2021/08/07 00:52:35;;;;;;;2.63;0.85;;;;;22.70;100239.00;;;;5042397;28;20294;-79
2021/08/07 00:55:03;;;;;;;3.15;1.00;;;;;22.70;100235.00;;;;5034973;28;20209;-79
2021/08/07 00:57:31;;;;;;;2.00;1.08;;;;;22.70;100239.00;;;;5038119;28;20200;-80
2021/08/07 00:59:58;;;;;;;1.90;0.73;;;;;22.70;100245.00;;;;5034528;28;20238;-80
2021/08/07 01:02:27;;;;;;;3.90;1.00;;;;;22.70;100241.00;;;;5030334;28;20204;-79
2021/08/07 01:05:02;;;;;;;3.30;1.10;;;;;22.60;100245.00;;;;5043983;28;20208;-80
2021/08/07 01:07:39;;;;;;;4.25;1.23;;;;;22.60;100236.00;;;;5037486;28;20540;-80
2021/08/07 01:10:12;;;;;;;2.95;0.93;;;;;22.60;100239.00;;;;5037147;28;20324;-80
2021/08/07 01:12:49;;;;;;;2.15;0.85;;;;;22.60;100242.00;;;;5041880;28;20201;-79
2021/08/07 01:15:25;;;;;;;2.33;1.05;;;;;22.60;100234.00;;;;5032361;28;20196;-80
2021/08/07 01:17:54;;;;;;;3.60;1.17;;;;;22.60;100238.00;;;;5042661;28;20196;-79
2021/08/07 01:20:26;;;;;;;4.22;1.17;;;;;22.60;100242.00;;;;5029395;28;20224;-80
2021/08/07 01:23:03;;;;;;;2.17;0.80;;;;;22.50;100239.00;;;;5036285;28;20212;-80
2021/08/07 01:25:40;;;;;;;2.38;0.90;;;;;22.60;100240.00;;;;5037350;28;20210;-80
2021/08/07 01:28:09;;;;;;;2.40;1.17;;;;;22.50;100237.00;;;;5037610;28;20202;-79
2021/08/07 01:30:37;;;;;;;4.57;1.25;;;;;22.60;100225.00;;;;5042422;28;20219;-80
2021/08/07 01:33:05;;;;;;;2.63;1.05;;;;;22.50;100230.00;;;;5034574;28;20581;-79
2021/08/07 01:35:32;;;;;;;3.97;0.90;;;;;22.50;100229.00;;;;5035300;28;20232;-79
2021/08/07 01:37:59;;;;;;;4.03;1.40;;;;;22.50;100227.00;;;;5046894;28;20195;-80
2021/08/07 01:40:26;;;;;;;2.08;0.90;;;;;22.50;100224.00;;;;5041675;28;20224;-79
2021/08/07 01:42:54;;;;;;;1.60;0.77;;;;;22.50;100215.00;;;;5035781;28;20204;-79
2021/08/07 01:45:22;;;;;;;1.73;0.95;;;;;22.40;100223.00;;;;5038826;28;20283;-79
2021/08/07 01:47:57;;;;;;;4.20;1.08;;;;;22.40;100223.00;;;;5040568;28;20600;-79
2021/08/07 01:50:28;;;;;;;4.15;0.98;;;;;22.40;100220.00;;;;5039027;28;20195;-79
2021/08/07 01:53:00;;;;;;;1.40;0.73;;;;;22.40;100222.00;;;;5035155;28;20227;-79
2021/08/07 01:55:31;;;;;;;2.08;1.02;;;;;22.40;100218.00;;;;5029219;28;20208;-79
2021/08/07 01:58:04;;;;;;;2.65;1.10;;;;;22.30;100221.00;;;;5041531;28;20227;-79
2021/08/07 02:00:34;;;;;;;2.33;1.00;;;;;22.30;100210.00;;;;5044989;28;20231;-78
2021/08/07 02:03:02;;;;;;;2.25;1.00;;;;;22.30;100216.00;;;;5045461;28;20208;-79
2021/08/07 02:05:30;;;;;;;2.75;0.70;;;;;22.40;100216.00;;;;5042507;28;20207;-79
2021/08/07 02:07:58;;;;;;;2.80;1.13;;;;;22.30;100211.00;;;;5050871;28;20199;-79
2021/08/07 02:10:26;;;;;;;2.63;1.05;;;;;22.30;100209.00;;;;5047256;28;20196;-79
2021/08/07 02:12:53;;;;;;;3.85;0.98;;;;;22.30;100206.00;;;;5044569;28;20200;-79
2021/08/07 02:15:22;;;;;;;1.10;0.80;;;;;22.30;100208.00;;;;5049630;28;20196;-79
2021/08/07 02:17:52;;;;;;;2.90;0.80;;;;;22.20;100207.00;;;;5036551;28;20200;-80
2021/08/07 02:20:20;;;;;;;1.58;0.90;;;;;22.30;100217.00;;;;5034878;28;20228;-79
2021/08/07 02:22:50;;;;;;;3.28;1.15;;;;;22.20;100215.00;;;;5045740;28;20675;-79
2021/08/07 02:25:18;;;;;;;2.13;1.10;;;;;22.20;100216.00;;;;5043639;28;20636;-79
2021/08/07 02:27:45;;;;;;;2.42;0.88;;;;;22.20;100216.00;;;;5044271;28;20204;-79
2021/08/07 02:30:13;;;;;;;1.85;0.85;;;;;22.10;100224.00;;;;5036641;28;20216;-79
2021/08/07 02:32:42;;;;;;;2.42;0.93;;;;;22.10;100225.00;;;;5031497;28;20208;-79
2021/08/07 02:35:12;;;;;;;2.22;1.05;;;;;22.10;100217.00;;;;5042704;28;20296;-79
2021/08/07 02:37:40;;;;;;;1.42;0.65;;;;;22.10;100219.00;;;;5044840;28;20196;-79
2021/08/07 02:40:10;;;;;;;2.08;1.20;;;;;22.00;100217.00;;;;5035460;28;20228;-79
2021/08/07 02:42:38;;;;;;;2.97;1.00;;;;;22.00;100220.00;;;;5031546;28;20192;-78
2021/08/07 02:45:08;;;;;;;2.08;1.13;;;;;22.00;100216.00;;;;5035136;28;20203;-79
2021/08/07 02:47:36;;;;;;;2.70;1.00;;;;;22.00;100218.00;;;;5031572;28;20208;-79
2021/08/07 02:50:06;;;;;;;2.67;1.30;;;;;21.90;100210.00;;;;5032297;28;20208;-79
2021/08/07 02:52:35;;;;;;;1.67;1.10;;;;;21.90;100214.00;;;;5030396;28;20204;-79
2021/08/07 02:55:04;;;;;;;2.72;1.17;;;;;21.90;100217.00;;;;5042618;28;20211;-79
2021/08/07 02:57:31;;;;;;;1.83;1.00;;;;;21.90;100206.00;;;;5041716;28;21061;-79
2021/08/07 02:59:59;;;;;;;1.60;1.00;;;;;21.80;100211.00;;;;5030267;28;20224;-79
2021/08/07 03:02:26;;;;;;;2.05;1.15;;;;;21.80;100201.00;;;;5037655;28;20192;-80
2021/08/07 03:04:53;;;;;;;1.50;0.80;;;;;21.80;100210.00;;;;5044710;28;20214;-79
2021/08/07 03:07:21;;;;;;;5.65;1.73;;;;;21.80;100202.00;;;;5048872;28;20192;-79
2021/08/07 03:09:50;;;;;;;3.17;1.27;;;;;21.70;100201.00;;;;5047981;28;20195;-79
2021/08/07 03:12:17;;;;;;;2.55;1.20;;;;;21.70;100202.00;;;;5046677;28;20203;-79
2021/08/07 03:14:45;;;;;;;4.45;1.27;;;;;21.70;100205.00;;;;5048926;28;20207;-79
2021/08/07 03:17:12;;;;;;;1.58;1.10;;;;;21.70;100201.00;;;;5050303;28;20199;-80
2021/08/07 03:19:39;;;;;;;1.80;1.05;;;;;21.70;100203.00;;;;5049178;28;20235;-79
2021/08/07 03:22:07;;;;;;;1.20;0.82;;;;;21.70;100208.00;;;;5049602;28;20210;-79
2021/08/07 03:24:34;;;;;;;1.25;1.00;;;;;21.70;100209.00;;;;5043976;28;20273;-79
2021/08/07 03:27:03;;;;;;;2.08;1.13;;;;;21.70;100206.00;;;;5044342;28;20188;-79
2021/08/07 03:29:30;;;;;;;1.83;1.48;;;;;21.70;100215.00;;;;5041295;28;20203;-79
2021/08/07 03:31:57;;;;;;;1.63;1.52;;;;;21.70;100206.00;;;;5049967;28;20238;-79
2021/08/07 03:34:24;;;;;;;4.75;1.08;;;;;21.70;100203.00;;;;5044477;28;20231;-79
2021/08/07 03:36:51;;;;;;;2.45;1.38;;;;;21.70;100204.00;;;;5029686;28;20206;-79
2021/08/07 03:39:19;;;;;;;1.25;1.05;;;;;21.70;100203.00;;;;5040010;28;20203;-79
2021/08/07 03:41:47;;;;;;;1.83;1.33;;;;;21.70;100197.00;;;;5047976;28;20207;-79
2021/08/07 03:44:16;;;;;;;1.73;1.13;;;;;21.70;100189.00;;;;5040547;28;20203;-79
2021/08/07 03:46:43;;;;;;;6.20;1.80;;;;;21.80;100190.00;;;;5037622;28;20200;-79
2021/08/07 03:49:10;;;;;;;1.88;1.13;;;;;21.80;100190.00;;;;5039384;28;20200;-79
2021/08/07 03:51:38;;;;;;;2.85;1.60;;;;;21.80;100190.00;;;;5049707;28;20207;-79
2021/08/07 03:54:05;;;;;;;2.88;1.10;;;;;21.80;100179.00;;;;5039548;28;20196;-79
2021/08/07 03:56:32;;;;;;;2.33;1.23;;;;;21.80;100177.00;;;;5033302;28;20196;-78
2021/08/07 03:58:59;;;;;;;3.90;1.65;;;;;21.80;100171.00;;;;5049712;28;20199;-79
2021/08/07 04:01:28;;;;;;;2.50;1.23;;;;;21.80;100162.00;;;;5049985;28;20631;-79
2021/08/07 04:03:55;;;;;;;1.88;1.13;;;;;21.80;100173.00;;;;5048789;28;20630;-79
2021/08/07 04:06:22;;;;;;;4.13;1.15;;;;;21.90;100176.00;;;;5049099;28;20206;-79
2021/08/07 04:08:50;;;;;;;3.47;1.23;;;;;21.90;100174.00;;;;5046212;28;20191;-79
2021/08/07 04:11:17;;;;;;;1.85;1.08;;;;;21.90;100178.00;;;;5038729;28;20192;-79
2021/08/07 04:13:44;;;;;;;1.92;1.27;;;;;21.90;100187.00;;;;5035088;28;20669;-80
2021/08/07 04:16:11;;;;;;;2.42;1.20;;;;;22.00;100182.00;;;;5049751;28;20209;-80
2021/08/07 04:18:40;;;;;;;2.10;1.40;;;;;22.00;100184.00;;;;5048605;28;20210;-80
2021/08/07 04:21:07;;;;;;;1.35;1.20;;;;;22.00;100181.00;;;;5046001;28;20227;-80
2021/08/07 04:23:35;;;;;;;1.58;0.77;;;;;22.00;100186.00;;;;5032270;28;20200;-78
2021/08/07 04:26:02;;;;;;;2.15;1.10;;;;;22.10;100185.00;;;;5048388;28;20192;-78
2021/08/07 04:28:29;;;;;;;2.25;1.23;;;;;22.10;100177.00;;;;5047164;28;20669;-78
2021/08/07 04:30:56;;;;;;;2.90;0.93;;;;;22.10;100169.00;;;;5048720;28;20226;-78
2021/08/07 04:33:24;;;;;;;2.05;0.90;;;;;22.10;100174.00;;;;5046038;28;20467;-78
2021/08/07 04:35:52;;;;;;;4.75;1.30;;;;;22.10;100174.00;;;;5037933;28;20233;-78
2021/08/07 04:38:20;;;;;;;2.17;0.93;;;;;22.10;100176.00;;;;5048138;28;20665;-78
2021/08/07 04:40:48;;;;;;;2.28;1.00;;;;;22.20;100177.00;;;;5047711;28;20231;-78
2021/08/07 04:43:15;;;;;;;1.63;1.10;;;;;22.20;100176.00;;;;5047703;28;20219;-78
2021/08/07 04:45:43;;;;;;;2.00;1.20;;;;;22.20;100176.00;;;;5036221;28;20208;-78
2021/08/07 04:48:10;;;;;;;1.67;1.30;;;;;22.20;100177.00;;;;5031890;28;20254;-79
2021/08/07 04:50:37;;;;;;;2.50;1.30;;;;;22.20;100183.00;;;;5047407;28;20204;-79
2021/08/07 04:53:07;;;;;;;2.33;1.20;;;;;22.20;100177.00;;;;5046574;28;20648;-79
2021/08/07 04:55:35;;;;;;;1.80;1.17;;;;;22.20;100178.00;;;;5036026;28;20257;-78
2021/08/07 04:58:03;;;;;;;2.95;1.15;;;;;22.20;100179.00;;;;5031502;28;20864;-79
2021/08/07 05:00:30;;;;;;;2.17;0.98;;;;;22.20;100175.00;;;;5030072;28;20227;-79
2021/08/07 05:02:57;;;;;;;2.53;1.00;;;;;22.20;100177.00;;;;5027732;28;20283;-79
2021/08/07 05:05:24;;;;;;;1.40;1.00;;;;;22.20;100176.00;;;;5042137;28;20196;-79
2021/08/07 05:07:52;;;;;;;2.38;1.40;;;;;22.20;100177.00;;;;5047111;28;20200;-79
2021/08/07 05:10:21;;;;;;;2.42;1.33;;;;;22.20;100174.00;;;;5044775;28;20226;-79
2021/08/07 05:12:48;;;;;;;4.30;2.08;;;;;22.20;100168.00;;;;5031238;28;20192;-78
2021/08/07 05:15:15;;;;;;;3.15;1.45;;;;;22.20;100174.00;;;;5043713;28;20662;-79
2021/08/07 05:17:43;;;;;;;2.70;1.23;;;;;22.20;100175.00;;;;5046701;28;20198;-79
2021/08/07 05:20:11;;;;;;;1.65;1.08;;;;;22.20;100174.00;;;;5028872;28;20242;-79
2021/08/07 05:22:38;;;;;;;1.75;1.20;;;;;22.20;100172.00;;;;5028138;28;20216;-79
2021/08/07 05:25:06;;;;;;;2.25;1.10;;;;;22.20;100169.00;;;;5028853;28;20204;-79
2021/08/07 05:27:35;;;;;;;5.85;1.35;;;;;22.20;100164.00;;;;5043172;28;20207;-78
2021/08/07 05:30:03;;;;;;;3.15;1.02;;;;;22.20;100166.00;;;;5043532;28;20654;-78
2021/08/07 05:32:30;;;;;;;1.98;1.02;;;;;22.20;100161.00;;;;5047369;28;20195;-79
2021/08/07 05:34:57;;;;;;;3.88;1.13;;;;;22.20;100161.00;;;;5034519;28;20236;-79
2021/08/07 05:37:24;;;;;;;1.40;0.88;;;;;22.20;100162.00;;;;5051097;28;20207;-78
2021/08/07 05:39:51;;;;;;;1.90;0.93;;;;;22.30;100169.00;;;;5051442;28;20211;-78
2021/08/07 05:42:19;;;;;;;3.45;1.10;;;;;22.30;100159.00;;;;5041268;28;20204;-78
2021/08/07 05:44:47;;;;;;;2.55;1.25;;;;;22.30;100164.00;;;;5050251;28;20199;-78
2021/08/07 05:47:15;;;;;;;2.00;1.02;;;;;22.30;100163.00;;;;5040953;28;20200;-78
2021/08/07 05:49:42;;;;;;;4.40;1.15;;;;;22.40;100172.00;;;;5040839;28;20220;-78
2021/08/07 05:52:09;;;;;;;4.20;1.15;;;;;22.40;100164.00;;;;5042252;28;20212;-78
2021/08/07 05:54:37;;;;;;;3.08;1.00;;;;;22.40;100162.00;;;;5047711;28;20196;-78
2021/08/07 05:57:04;;;;;;;1.55;0.80;;;;;22.40;100173.00;;;;5040375;28;20674;-78
2021/08/07 05:59:31;;;;;;;1.80;0.98;;;;;22.50;100174.00;;;;5044930;28;20245;-78
2021/08/07 06:02:00;;;;;;;2.60;0.90;;;;;22.40;100171.00;;;;5040089;28;20219;-78
2021/08/07 06:04:27;;;;;;;1.80;0.88;;;;;22.50;100164.00;;;;5048584;28;20245;-78
2021/08/07 06:06:54;;;;;;;3.50;1.02;;;;;22.50;100162.00;;;;5047618;28;20195;-78
2021/08/07 06:09:21;;;;;;;2.63;1.20;;;;;22.50;100156.00;;;;5048689;28;20659;-78
2021/08/07 06:11:49;;;;;;;1.48;0.77;;;;;22.50;100154.00;;;;5047590;28;20200;-78
2021/08/07 06:14:16;;;;;;;2.15;0.80;;;;;22.60;100155.00;;;;5031670;28;20663;-78
2021/08/07 06:16:43;;;;;;;2.10;1.17;;;;;22.60;100153.00;;;;5038220;28;20207;-78
2021/08/07 06:19:12;;;;;;;3.00;1.00;;;;;22.60;100154.00;;;;5035394;28;20192;-78
2021/08/07 06:21:39;;;;;;;1.60;0.70;;;;;22.60;100155.00;;;;5045866;28;20227;-79
2021/08/07 06:24:07;;;;;;;2.58;0.90;;;;;22.60;100149.00;;;;5042809;28;20934;-78
2021/08/07 06:26:34;;;;;;;2.13;1.25;;;;;22.60;100155.00;;;;5038413;28;20215;-77
2021/08/07 06:29:01;;;;;;;0.63;0.55;;;;;22.60;100158.00;;;;5038915;28;20653;-78
2021/08/07 06:31:28;;;;;;;3.53;0.88;;;;;22.60;100149.00;;;;5040886;28;20219;-78
2021/08/07 06:33:57;;;;;;;2.72;0.85;;;;;22.60;100150.00;;;;5039629;28;20192;-77
2021/08/07 06:36:26;;;;;;;0.93;0.57;;;;;22.60;100150.00;;;;5039217;28;20207;-78
2021/08/07 06:38:53;;;;;;;2.05;0.77;;;;;22.70;100158.00;;;;5034114;28;20209;-78
2021/08/07 06:41:20;;;;;;;2.72;0.90;;;;;22.70;100151.00;;;;5044721;28;20789;-78
2021/08/07 06:43:48;;;;;;;1.88;0.93;;;;;22.80;100165.00;;;;5047499;28;20204;-77
2021/08/07 06:46:16;;;;;;;1.33;0.75;;;;;22.80;100150.00;;;;5049811;28;20665;-80
2021/08/07 06:48:43;;;;;;;2.88;0.85;;;;;22.80;100152.00;;;;5051056;28;20204;-79
2021/08/07 06:51:10;;;;;;;1.83;0.90;;;;;22.90;100154.00;;;;5035661;28;20205;-80
2021/08/07 06:53:40;;;;;;;2.63;0.63;;;;;22.90;100153.00;;;;5039985;28;20654;-79
2021/08/07 06:56:07;;;;;;;3.72;0.65;;;;;23.00;100146.00;;;;5038491;28;20203;-78
2021/08/07 06:58:34;;;;;;;2.38;0.90;;;;;23.00;100154.00;;;;5037870;28;20204;-77
2021/08/07 07:01:02;;;;;;;1.45;0.70;;;;;23.10;100152.00;;;;5033695;28;20227;-77
2021/08/07 07:03:29;;;;;;;2.63;0.88;;;;;23.20;100160.00;;;;5034844;28;20207;-78
2021/08/07 07:05:57;;;;;;;1.17;0.80;;;;;23.20;100157.00;;;;5038981;28;20192;-78
2021/08/07 07:08:27;;;;;;;2.50;1.15;;;;;23.30;100158.00;;;;5033652;28;20203;-77
2021/08/07 07:10:58;;;;;;;2.13;0.70;;;;;23.30;100153.00;;;;5036255;28;20263;-77
2021/08/07 07:13:25;;;;;;;2.22;0.60;;;;;23.30;100159.00;;;;5038722;28;20203;-76
2021/08/07 07:15:53;;;;;;;1.90;0.88;;;;;23.40;100155.00;;;;5043566;28;20235;-77
2021/08/07 07:18:20;;;;;;;2.63;0.93;;;;;23.40;100154.00;;;;5039083;28;20212;-78
2021/08/07 07:20:47;;;;;;;5.20;0.52;;;;;23.40;100155.00;;;;5040732;28;20224;-76
2021/08/07 07:23:15;;;;;;;1.70;0.60;;;;;23.50;100152.00;;;;5040113;28;20203;-77
2021/08/07 07:25:43;;;;;;;1.52;0.52;;;;;23.50;100154.00;;;;5040201;28;20214;-76
2021/08/07 07:28:12;;;;;;;1.77;1.00;;;;;23.50;100152.00;;;;5039419;28;20203;-76
2021/08/07 07:30:39;;;;;;;0.77;0.50;;;;;23.60;100145.00;;;;5029600;28;20238;-76
2021/08/07 07:33:07;;;;;;;1.30;0.47;;;;;23.60;100145.00;;;;5042626;28;20200;-76
2021/08/07 07:35:34;;;;;;;4.65;0.80;;;;;23.60;100150.00;;;;5049039;28;20732;-75
2021/08/07 07:38:01;;;;;;;3.08;0.77;;;;;23.70;100147.00;;;;5043505;28;20184;-79
2021/08/07 07:40:28;;;;;;;1.63;0.77;;;;;23.70;100150.00;;;;5045646;28;20210;-77
2021/08/07 07:42:56;;;;;;;2.22;0.90;;;;;23.70;100153.00;;;;5037467;28;20241;-78
2021/08/07 07:45:24;;;;;;;3.88;1.25;;;;;23.70;100150.00;;;;5049868;28;20231;-77
2021/08/07 07:47:52;;;;;;;3.78;0.70;;;;;23.80;100154.00;;;;5039730;28;20204;-77
2021/08/07 07:50:20;;;;;;;1.98;0.85;;;;;23.80;100156.00;;;;5042581;28;21559;-77
2021/08/07 07:52:48;;;;;;;4.25;1.33;;;;;23.90;100155.00;;;;5049570;28;20196;-77
2021/08/07 07:55:15;;;;;;;1.88;0.75;;;;;24.00;100152.00;;;;5030935;28;20196;-76
2021/08/07 07:57:43;;;;;;;5.30;1.00;;;;;24.00;100155.00;;;;5036530;28;20195;-76
2021/08/07 08:00:11;;;;;;;3.20;1.05;;;;;24.10;100150.00;;;;5046912;28;20203;-76
2021/08/07 08:02:40;;;;;;;2.00;0.88;;;;;24.10;100148.00;;;;5034100;28;20220;-74
2021/08/07 08:05:07;;;;;;;2.10;1.00;;;;;24.10;100147.00;;;;5045626;28;20187;-74
2021/08/07 08:07:35;;;;;;;1.63;0.90;;;;;24.20;100147.00;;;;5049829;28;20658;-75
2021/08/07 08:10:02;;;;;;;5.07;0.88;;;;;24.20;100151.00;;;;5048556;28;20883;-75
2021/08/07 08:12:29;;;;;;;3.20;0.90;;;;;24.20;100145.00;;;;5049640;28;20571;-75
2021/08/07 08:14:56;;;;;;;4.22;1.02;;;;;24.20;100138.00;;;;5049033;28;20196;-74
2021/08/07 08:17:23;;;;;;;2.40;0.80;;;;;24.20;100144.00;;;;5048751;28;20621;-75
2021/08/07 08:19:52;;;;;;;4.53;1.23;;;;;24.20;100145.00;;;;5048020;28;20199;-74
2021/08/07 08:22:19;;;;;;;1.70;1.00;;;;;24.20;100132.00;;;;5049142;28;20231;-75
2021/08/07 08:24:46;;;;;;;1.77;0.68;;;;;24.30;100137.00;;;;5049033;28;20195;-75
2021/08/07 08:27:18;;;;;;;1.25;0.70;;;;;24.30;100129.00;;;;5049784;28;20207;-75
2021/08/07 08:29:46;;;;;;;2.88;1.02;;;;;24.40;100126.00;;;;5044680;28;20200;-75
2021/08/07 08:32:13;;;;;;;3.50;0.73;;;;;24.40;100128.00;;;;5036315;28;20274;-74
2021/08/07 08:34:41;;;;;;;2.03;0.60;;;;;24.50;100128.00;;;;5033386;28;20227;-74
2021/08/07 08:37:10;;;;;;;1.83;0.80;;;;;24.60;100131.00;;;;5048973;28;20633;-74
2021/08/07 08:39:37;;;;;;;2.90;1.00;;;;;24.60;100124.00;;;;5049793;28;20210;-74
2021/08/07 08:42:07;;;;;;;2.28;0.70;;;;;24.70;100121.00;;;;5048639;28;20223;-75
2021/08/07 08:44:35;;;;;;;1.65;0.70;;;;;24.80;100122.00;;;;5049489;28;20238;-74
2021/08/07 08:47:02;;;;;;;1.63;0.80;;;;;24.90;100115.00;;;;5048506;28;20273;-75
2021/08/07 08:49:30;;;;;;;1.27;0.55;;;;;25.00;100120.00;;;;5049127;28;20210;-74
2021/08/07 08:51:59;;;;;;;1.63;0.50;;;;;25.10;100120.00;;;;5047767;28;20218;-75
2021/08/07 08:54:29;;;;;;;1.45;0.60;;;;;25.10;100109.00;;;;5048594;28;20210;-75
2021/08/07 08:56:57;;;;;;;1.70;0.60;;;;;25.30;100111.00;;;;5048313;28;20207;-75
2021/08/07 08:59:24;;;;;;;2.45;0.55;;;;;25.30;100097.00;;;;5049355;28;20196;-74
2021/08/07 09:01:52;;;;;;;2.35;0.57;;;;;25.40;100095.00;;;;5048432;28;20227;-76
2021/08/07 09:04:23;;;;;;;2.30;0.43;;;;;25.50;100098.00;;;;5049380;28;20211;-75
2021/08/07 09:06:50;;;;;;;3.28;0.95;;;;;25.60;100100.00;;;;5047639;28;20205;-75
2021/08/07 09:09:17;;;;;;;2.08;0.40;;;;;25.60;100101.00;;;;5048269;28;20200;-75
2021/08/07 09:11:51;;;;;;;1.58;0.45;;;;;25.60;100094.00;;;;5048908;28;21081;-74
2021/08/07 09:14:25;;;;;;;1.15;0.60;;;;;25.70;100088.00;;;;5049184;28;20211;-74
2021/08/07 09:17:08;;;;;;;1.65;0.30;;;;;25.70;100083.00;;;;5048426;28;20721;-75
2021/08/07 09:19:50;;;;;;;0.63;0.43;;;;;25.80;100083.00;;;;5048857;28;20665;-75
2021/08/07 09:22:19;;;;;;;2.78;0.70;;;;;25.90;100082.00;;;;5048671;28;20226;-75
2021/08/07 09:24:58;;;;;;;1.58;0.73;;;;;26.00;100074.00;;;;5048649;28;20214;-75
2021/08/07 09:27:32;;;;;;;2.05;0.50;;;;;26.10;100077.00;;;;5048936;28;20216;-76
2021/08/07 09:29:59;;;;;;;0.98;0.70;;;;;26.30;100080.00;;;;5048835;28;20196;-75
2021/08/07 09:32:27;;;;;;;2.38;0.90;;;;;26.50;100065.00;;;;5048288;28;20275;-74
2021/08/07 09:35:06;;;;;;;3.80;1.23;;;;;26.50;100063.00;;;;5048816;28;20611;-75
2021/08/07 09:37:33;;;;;;;3.72;1.13;;;;;26.80;100059.00;;;;5048862;28;20601;-75
2021/08/07 09:40:02;;;;;;;1.13;0.70;;;;;27.00;100063.00;;;;5048209;28;20548;-75
2021/08/07 09:42:31;;;;;;;1.42;0.65;;;;;27.10;100050.00;;;;5048272;28;20235;-75
2021/08/07 09:45:04;;;;;;;2.85;0.85;;;;;27.30;100050.00;;;;5047988;28;20208;-75
2021/08/07 09:47:32;;;;;;;2.10;0.70;;;;;27.40;100047.00;;;;5048178;28;20200;-74
2021/08/07 09:50:01;;;;;;;2.15;1.05;;;;;27.50;100040.00;;;;5048566;28;20231;-76
2021/08/07 09:52:37;;;;;;;2.53;0.90;;;;;27.50;100045.00;;;;5049633;28;20674;-75
2021/08/07 09:55:05;;;;;;;1.17;0.65;;;;;27.70;100045.00;;;;5047827;28;20691;-74
2021/08/07 09:57:34;;;;;;;1.13;0.88;;;;;27.80;100032.00;;;;5048710;28;20576;-76
2021/08/07 10:00:01;;;;;;;1.75;0.85;;;;;27.90;100030.00;;;;5050422;28;20207;-75
2021/08/07 10:02:31;;;;;;;2.55;0.90;;;;;28.00;100025.00;;;;5049981;28;20600;-75
2021/08/07 10:04:59;;;;;;;3.92;1.15;;;;;28.10;100019.00;;;;5051237;28;20617;-75
2021/08/07 10:07:27;;;;;;;1.92;0.70;;;;;28.20;100016.00;;;;5047770;28;20199;-75
2021/08/07 10:09:55;;;;;;;1.73;0.75;;;;;28.30;100021.00;;;;5048613;28;20204;-74
2021/08/07 10:12:22;;;;;;;0.60;0.43;;;;;28.30;100019.00;;;;5048331;28;20200;-76
2021/08/07 10:14:51;;;;;;;1.98;0.82;;;;;28.20;100016.00;;;;5047762;28;20293;-75
2021/08/07 10:17:23;;;;;;;2.17;0.80;;;;;28.10;100019.00;;;;5048563;28;20204;-75
2021/08/07 10:19:51;;;;;;;1.30;0.50;;;;;28.00;100024.00;;;;5050079;28;20196;-76
2021/08/07 10:22:19;;;;;;;4.07;0.68;;;;;27.90;100027.00;;;;5051847;28;20308;-75
2021/08/07 10:24:48;;;;;;;1.08;0.68;;;;;27.80;100032.00;;;;5050990;28;20196;-75
2021/08/07 10:27:19;;;;;;;2.03;0.90;;;;;27.70;100059.00;;;;5051027;28;20203;-76
2021/08/07 10:29:47;;;;;;;1.27;0.55;;;;;27.50;100056.00;;;;5051033;28;20207;-75
2021/08/07 10:32:18;;;;;;;1.58;0.80;;;;;27.30;100050.00;;;;5052149;28;20720;-75
2021/08/07 10:34:49;;;;;;;1.40;0.63;;;;;27.10;100041.00;;;;5052266;28;20231;-76
2021/08/07 10:37:17;;;;;;;2.40;1.00;;;;;27.00;100043.00;;;;5051213;28;20259;-75
2021/08/07 10:39:44;;;;;;;1.98;0.80;;;;;26.80;100033.00;;;;5051169;28;20670;-76
2021/08/07 10:42:14;;;;;;;2.03;0.88;;;;;26.70;100034.00;;;;5050200;28;20720;-76
2021/08/07 10:44:45;;;;;;;7.60;1.38;;;;;26.60;100028.00;;;;5051746;28;20202;-76
2021/08/07 10:47:12;;;;;;;2.42;1.48;;;;;26.60;100025.00;;;;5053532;28;20250;-76
2021/08/07 10:49:42;;;;;;;3.13;1.08;;;;;26.60;100013.00;;;;5052157;28;20211;-75
2021/08/07 10:52:36;;;;;;;2.15;1.13;;;;;26.60;100009.00;;;;5051004;28;20214;-75
2021/08/07 10:55:03;;;;;;;1.48;0.90;;;;;26.70;100012.00;;;;5050876;28;20673;-76
2021/08/07 10:57:36;;;;;;;1.60;0.90;;;;;26.70;100008.00;;;;5051042;28;20207;-76
2021/08/07 11:00:19;;;;;;;2.65;1.00;;;;;26.80;100004.00;;;;5050839;28;20199;-76
2021/08/07 11:02:47;;;;;;;1.92;0.98;;;;;26.90;100004.00;;;;5050731;28;20219;-75
2021/08/07 11:05:16;;;;;;;1.80;1.17;;;;;27.00;100003.00;;;;5051136;28;20642;-76
2021/08/07 11:07:43;;;;;;;1.83;0.80;;;;;27.10;99992.00;;;;5050738;28;20207;-76
2021/08/07 11:10:13;;;;;;;1.38;1.08;;;;;27.20;99992.00;;;;5050699;28;20208;-76
2021/08/07 11:12:42;;;;;;;2.17;0.80;;;;;27.30;99994.00;;;;5050858;28;20195;-75
2021/08/07 11:15:12;;;;;;;2.05;1.08;;;;;27.40;99989.00;;;;5050585;28;20753;-75
2021/08/07 11:17:42;;;;;;;2.13;0.77;;;;;27.40;99990.00;;;;5050942;28;20207;-75
2021/08/07 11:20:12;;;;;;;1.60;0.90;;;;;27.50;99986.00;;;;5050977;28;20222;-75
2021/08/07 11:23:15;;;;;;;3.97;1.20;;;;;27.40;99984.00;;;;5050337;28;20227;-75
2021/08/07 11:26:06;;;;;;;3.80;1.08;;;;;27.40;99993.00;;;;5040282;28;20640;-75
2021/08/07 11:28:54;;;;;;;1.48;0.73;;;;;27.50;99986.00;;;;5050730;28;20188;-76
2021/08/07 11:31:23;;;;;;;3.38;1.02;;;;;27.50;99976.00;;;;5040146;28;20228;-75
2021/08/07 11:34:22;;;;;;;3.08;0.75;;;;;27.40;99979.00;;;;5030227;28;20196;-75
2021/08/07 11:37:19;;;;;;;3.58;0.77;;;;;27.40;99982.00;;;;5030580;28;20215;-75
2021/08/07 11:40:19;;;;;;;2.83;0.57;;;;;27.40;99970.00;;;;4995821;28;20639;-75
2021/08/07 11:42:51;;;;;;;4.70;1.10;;;;;27.50;99961.00;;;;4982798;28;20779;-76
2021/08/07 11:45:21;;;;;;;1.45;0.70;;;;;27.50;99970.00;;;;4988827;28;20198;-75
2021/08/07 11:47:54;;;;;;;1.70;1.05;;;;;27.50;99957.00;;;;5019173;28;20211;-76
2021/08/07 11:50:23;;;;;;;3.60;0.95;;;;;27.60;99959.00;;;;5050611;28;20210;-75
2021/08/07 11:52:50;;;;;;;2.05;0.60;;;;;27.70;99961.00;;;;5049643;28;20309;-76
2021/08/07 11:55:18;;;;;;;1.52;0.68;;;;;27.80;99959.00;;;;5050308;28;20199;-75
2021/08/07 11:57:45;;;;;;;2.22;0.63;;;;;27.80;99958.00;;;;5049659;28;20204;-76
2021/08/07 12:00:27;;;;;;;1.38;0.70;;;;;27.80;99965.00;;;;5049833;28;20213;-76
2021/08/07 12:03:04;;;;;;;1.67;0.80;;;;;27.90;99961.00;;;;5049456;28;20227;-75
2021/08/07 12:05:32;;;;;;;2.90;0.70;;;;;28.10;99954.00;;;;5050149;28;20203;-75
2021/08/07 12:08:02;;;;;;;4.95;0.95;;;;;28.10;99952.00;;;;5048321;28;20261;-75
2021/08/07 12:10:29;;;;;;;2.92;0.85;;;;;28.10;99953.00;;;;5050010;28;20195;-76
2021/08/07 12:12:57;;;;;;;1.50;0.70;;;;;28.10;99955.00;;;;5049852;28;20211;-74
2021/08/07 12:15:24;;;;;;;1.17;0.60;;;;;28.10;99947.00;;;;5048857;28;20673;-73
2021/08/07 12:17:52;;;;;;;1.95;0.77;;;;;28.10;99941.00;;;;5048512;28;20203;-74